createdAt,value
2017-12-25T00:01:35.231Z,4.80
2017-12-25T00:04:02.779Z,4.80
2017-12-25T00:06:30.489Z,4.80
2017-12-25T00:08:58.199Z,4.80
2017-12-25T00:11:25.837Z,4.80
2017-12-25T00:13:53.393Z,4.80
2017-12-25T00:16:20.940Z,4.80
2017-12-25T00:18:48.469Z,4.70
2017-12-25T00:21:16.772Z,4.60
2017-12-25T00:23:44.291Z,4.60
2017-12-25T00:26:12.124Z,4.60
2017-12-25T00:28:39.675Z,4.60
2017-12-25T00:31:07.205Z,4.60
2017-12-25T00:33:34.761Z,4.70
2017-12-25T00:36:02.279Z,4.60
2017-12-25T00:38:29.808Z,4.70
2017-12-25T00:40:57.339Z,4.70
2017-12-25T00:43:24.861Z,4.70
2017-12-25T00:45:52.399Z,4.70
2017-12-25T00:48:20.819Z,4.80
2017-12-25T00:50:49.111Z,4.60
2017-12-25T00:53:16.644Z,4.60
2017-12-25T00:55:44.936Z,4.80
2017-12-25T00:58:13.236Z,4.80
2017-12-25T01:00:40.786Z,4.80
2017-12-25T01:03:08.313Z,4.80
2017-12-25T01:05:36.619Z,4.60
2017-12-25T01:08:04.145Z,4.60
2017-12-25T01:10:31.704Z,4.60
2017-12-25T01:12:59.262Z,4.60
2017-12-25T01:15:31.063Z,4.60
2017-12-25T01:18:03.029Z,4.60
2017-12-25T01:20:33.582Z,4.50
2017-12-25T01:23:03.949Z,4.50
2017-12-25T01:25:34.901Z,4.50
2017-12-25T01:28:05.083Z,4.60
2017-12-25T01:30:32.689Z,4.50
2017-12-25T01:33:00.225Z,4.50
2017-12-25T01:35:28.541Z,4.60
2017-12-25T01:37:56.069Z,4.50
2017-12-25T01:40:23.607Z,4.50
2017-12-25T01:42:51.133Z,4.50
2017-12-25T01:45:18.647Z,4.60
2017-12-25T01:47:46.957Z,4.50
2017-12-25T01:50:14.487Z,4.50
2017-12-25T01:52:42.026Z,4.50
2017-12-25T01:55:10.307Z,4.70
2017-12-25T01:57:54.373Z,4.70
2017-12-25T02:00:29.679Z,4.70
2017-12-25T02:02:58.793Z,4.80
2017-12-25T02:18:50.583Z,4.60
2017-12-25T02:21:18.100Z,4.60
2017-12-25T02:23:45.630Z,4.60
2017-12-25T02:26:13.160Z,4.80
2017-12-25T02:28:40.677Z,4.90
2017-12-25T02:31:08.227Z,4.90
2017-12-25T02:33:35.774Z,5.00
2017-12-25T02:36:03.291Z,5.00
2017-12-25T02:38:30.903Z,5.00
2017-12-25T02:40:58.429Z,4.90
2017-12-25T02:43:26.732Z,4.90
2017-12-25T02:45:54.265Z,4.90
2017-12-25T02:48:22.548Z,4.70
2017-12-25T02:50:50.093Z,4.70
2017-12-25T02:53:18.633Z,4.60
2017-12-25T02:55:46.168Z,4.60
2017-12-25T02:58:13.684Z,4.50
2017-12-25T03:00:41.967Z,4.60
2017-12-25T03:03:10.273Z,4.50
2017-12-25T03:05:37.801Z,4.50
2017-12-25T03:08:06.117Z,4.40
2017-12-25T03:10:33.634Z,4.40
2017-12-25T03:13:01.915Z,4.30
2017-12-25T03:15:30.219Z,4.30
2017-12-25T03:17:57.736Z,4.30
2017-12-25T03:20:25.275Z,4.40
2017-12-25T03:22:52.795Z,4.40
2017-12-25T03:25:20.307Z,4.40
2017-12-25T03:27:47.839Z,4.40
2017-12-25T03:30:15.356Z,4.30
2017-12-25T03:32:43.151Z,4.20
2017-12-25T03:35:10.681Z,4.30
2017-12-25T03:37:38.217Z,4.10
2017-12-25T03:40:06.516Z,4.20
2017-12-25T03:42:34.040Z,4.20
2017-12-25T03:45:01.575Z,4.30
2017-12-25T03:47:29.102Z,4.20
2017-12-25T03:49:56.616Z,4.00
2017-12-25T03:52:24.144Z,4.00
2017-12-25T03:54:51.674Z,4.00
2017-12-25T03:57:19.216Z,4.10
2017-12-25T03:59:46.746Z,4.10
2017-12-25T04:02:14.373Z,3.90
2017-12-25T04:04:41.913Z,3.90
2017-12-25T04:07:09.442Z,4.00
2017-12-25T04:09:37.748Z,4.00
2017-12-25T04:12:05.274Z,4.00
2017-12-25T04:14:33.807Z,4.00
2017-12-25T04:17:01.356Z,4.00
2017-12-25T04:19:29.821Z,3.90
2017-12-25T04:21:57.355Z,3.80
2017-12-25T04:24:24.906Z,3.90
2017-12-25T04:26:52.434Z,3.80
2017-12-25T04:29:19.982Z,3.80
2017-12-25T04:31:47.853Z,3.80
2017-12-25T04:34:16.841Z,3.70
2017-12-25T04:36:44.354Z,3.70
2017-12-25T04:39:12.639Z,3.60
2017-12-25T04:41:40.171Z,3.60
2017-12-25T04:44:07.701Z,3.70
2017-12-25T04:46:35.253Z,3.70
2017-12-25T04:49:02.782Z,3.70
2017-12-25T04:51:30.572Z,3.60
2017-12-25T04:53:58.107Z,3.60
2017-12-25T04:56:25.694Z,3.70
2017-12-25T04:58:53.242Z,3.60
2017-12-25T05:01:20.765Z,3.50
2017-12-25T05:03:49.078Z,3.50
2017-12-25T05:06:16.615Z,3.50
2017-12-25T05:08:45.019Z,3.50
2017-12-25T05:11:13.236Z,3.50
2017-12-25T05:13:41.139Z,3.50
2017-12-25T05:16:08.659Z,3.50
2017-12-25T05:18:36.192Z,3.50
2017-12-25T05:21:03.721Z,3.40
2017-12-25T05:23:31.255Z,3.40
2017-12-25T05:25:58.779Z,3.50
2017-12-25T05:28:26.306Z,3.30
2017-12-25T05:30:53.868Z,3.30
2017-12-25T05:33:21.404Z,3.30
2017-12-25T05:35:48.966Z,3.30
2017-12-25T05:38:16.497Z,3.30
2017-12-25T05:40:44.788Z,3.40
2017-12-25T05:43:12.588Z,3.30
2017-12-25T05:45:40.110Z,3.30
2017-12-25T05:48:07.648Z,3.20
2017-12-25T05:50:36.016Z,3.20
2017-12-25T05:53:03.546Z,3.20
2017-12-25T05:55:31.075Z,3.20
2017-12-25T05:57:58.606Z,3.20
2017-12-25T06:00:26.953Z,3.20
2017-12-25T06:02:54.467Z,3.20
2017-12-25T06:05:21.993Z,3.20
2017-12-25T06:07:49.748Z,3.10
2017-12-25T06:10:17.273Z,3.20
2017-12-25T06:12:44.826Z,3.20
2017-12-25T06:15:12.385Z,3.20
2017-12-25T06:17:39.910Z,3.20
2017-12-25T06:20:08.207Z,3.00
2017-12-25T06:22:35.723Z,3.00
2017-12-25T06:25:03.269Z,3.00
2017-12-25T06:27:30.802Z,3.00
2017-12-25T06:29:58.325Z,3.00
2017-12-25T06:32:25.856Z,3.00
2017-12-25T06:34:53.371Z,3.00
2017-12-25T06:37:21.245Z,3.00
2017-12-25T06:39:49.008Z,3.00
2017-12-25T06:42:16.548Z,3.00
2017-12-25T06:44:44.123Z,3.00
2017-12-25T06:47:11.995Z,3.00
2017-12-25T06:49:39.532Z,2.90
2017-12-25T06:52:07.116Z,2.90
2017-12-25T06:54:34.878Z,2.90
2017-12-25T06:57:02.422Z,2.90
2017-12-25T06:59:29.989Z,2.90
2017-12-25T07:01:57.534Z,3.00
2017-12-25T07:04:25.066Z,2.90
2017-12-25T07:06:53.348Z,2.90
2017-12-25T07:09:20.897Z,2.90
2017-12-25T07:11:49.193Z,2.80
2017-12-25T07:14:16.741Z,2.80
2017-12-25T07:16:44.256Z,2.70
2017-12-25T07:19:12.104Z,2.70
2017-12-25T07:21:39.969Z,2.80
2017-12-25T07:24:07.487Z,2.70
2017-12-25T07:26:35.038Z,2.70
2017-12-25T07:29:03.334Z,2.70
2017-12-25T07:31:30.889Z,2.70
2017-12-25T07:33:58.439Z,2.70
2017-12-25T07:36:25.973Z,2.70
2017-12-25T07:38:53.598Z,2.60
2017-12-25T07:41:21.132Z,2.70
2017-12-25T07:43:48.681Z,2.70
2017-12-25T07:46:16.203Z,2.60
2017-12-25T07:48:43.739Z,2.60
2017-12-25T07:51:11.260Z,2.60
2017-12-25T07:53:38.783Z,2.70
2017-12-25T07:56:06.416Z,2.80
2017-12-25T07:58:33.949Z,2.80
2017-12-25T08:01:01.492Z,3.00
2017-12-25T08:03:29.076Z,3.00
2017-12-25T08:05:56.591Z,2.90
2017-12-25T08:08:24.884Z,2.70
2017-12-25T08:10:52.419Z,2.70
2017-12-25T08:13:20.033Z,2.70
2017-12-25T08:15:47.552Z,2.70
2017-12-25T08:18:15.852Z,2.50
2017-12-25T08:20:43.372Z,2.50
2017-12-25T08:23:11.666Z,2.60
2017-12-25T08:25:39.974Z,2.60
2017-12-25T08:28:07.488Z,2.60
2017-12-25T08:30:35.776Z,2.60
2017-12-25T08:33:04.090Z,2.70
2017-12-25T08:35:31.614Z,2.70
2017-12-25T08:37:59.218Z,2.70
2017-12-25T08:40:26.762Z,2.50
2017-12-25T08:42:54.284Z,2.50
2017-12-25T08:45:22.578Z,2.40
2017-12-25T08:47:50.126Z,2.40
2017-12-25T08:50:17.648Z,2.50
2017-12-25T08:52:46.691Z,2.40
2017-12-25T08:55:14.207Z,2.50
2017-12-25T08:57:42.766Z,2.50
2017-12-25T09:00:10.318Z,2.50
2017-12-25T09:02:37.862Z,2.50
2017-12-25T09:05:05.410Z,2.50
2017-12-25T09:07:32.943Z,2.70
2017-12-25T09:10:01.246Z,2.70
2017-12-25T09:12:29.439Z,2.70
2017-12-25T09:14:56.996Z,2.70
2017-12-25T09:17:24.552Z,2.90
2017-12-25T09:19:52.325Z,2.80
2017-12-25T09:22:19.845Z,2.70
2017-12-25T09:24:47.376Z,2.80
2017-12-25T09:27:14.929Z,2.70
2017-12-25T09:29:42.951Z,2.70
2017-12-25T09:32:11.646Z,2.70
2017-12-25T09:34:39.263Z,2.90
2017-12-25T09:37:07.481Z,2.60
2017-12-25T09:39:35.060Z,2.60
2017-12-25T09:42:03.115Z,2.90
2017-12-25T09:44:30.700Z,3.10
2017-12-25T09:46:58.220Z,3.30
2017-12-25T09:49:25.768Z,3.30
2017-12-25T09:51:53.288Z,3.10
2017-12-25T09:54:20.824Z,3.10
2017-12-25T09:56:48.671Z,3.10
2017-12-25T09:59:17.562Z,3.00
2017-12-25T10:01:45.632Z,3.10
2017-12-25T10:04:13.804Z,3.30
2017-12-25T10:06:41.775Z,3.70
2017-12-25T10:09:10.869Z,3.70
2017-12-25T10:11:38.460Z,3.70
2017-12-25T10:14:06.021Z,3.80
2017-12-25T10:16:33.854Z,3.70
2017-12-25T10:19:01.388Z,4.10
2017-12-25T10:21:29.671Z,4.70
2017-12-25T10:23:57.254Z,4.70
2017-12-25T10:26:24.805Z,5.10
2017-12-25T10:28:52.454Z,6.00
2017-12-25T10:31:20.040Z,7.10
2017-12-25T10:33:47.556Z,7.20
2017-12-25T10:36:15.836Z,8.70
2017-12-25T10:38:43.394Z,8.70
2017-12-25T10:41:10.926Z,9.10
2017-12-25T10:43:39.225Z,7.30
2017-12-25T10:46:07.855Z,6.90
2017-12-25T10:48:35.398Z,6.90
2017-12-25T10:51:02.936Z,6.80
2017-12-25T10:53:30.472Z,6.50
2017-12-25T10:55:58.786Z,7.10
2017-12-25T10:58:26.339Z,7.10
2017-12-25T11:00:54.825Z,8.30
2017-12-25T11:03:23.292Z,9.40
2017-12-25T11:05:50.928Z,9.10
2017-12-25T11:08:21.484Z,9.90
2017-12-25T11:10:52.631Z,10.60
2017-12-25T11:13:20.172Z,10.60
2017-12-25T11:15:49.796Z,11.60
2017-12-25T11:18:17.987Z,11.60
2017-12-25T11:20:46.316Z,11.40
2017-12-25T11:23:14.606Z,11.40
2017-12-25T11:25:42.911Z,12.00
2017-12-25T11:28:10.466Z,12.00
2017-12-25T11:30:37.980Z,11.30
2017-12-25T11:33:06.298Z,10.20
2017-12-25T11:35:33.816Z,10.20
2017-12-25T11:38:01.346Z,10.50
2017-12-25T11:40:28.880Z,11.20
2017-12-25T11:42:58.646Z,11.70
2017-12-25T11:45:26.952Z,10.50
2017-12-25T11:47:57.036Z,10.50
2017-12-25T11:50:26.275Z,9.60
2017-12-25T11:52:53.831Z,10.10
2017-12-25T11:55:21.348Z,10.20
2017-12-25T11:57:48.894Z,10.20
2017-12-25T12:00:16.411Z,11.00
2017-12-25T12:02:43.951Z,10.90
2017-12-25T12:05:14.442Z,10.40
2017-12-25T12:07:41.979Z,10.40
2017-12-25T12:10:09.524Z,10.90
2017-12-25T12:12:37.406Z,11.70
2017-12-25T12:15:05.680Z,12.10
2017-12-25T12:17:33.214Z,12.00
2017-12-25T12:20:01.793Z,11.80
2017-12-25T12:22:29.341Z,11.00
2017-12-25T12:24:57.164Z,9.40
2017-12-25T12:27:24.768Z,9.80
2017-12-25T12:29:52.296Z,10.30
2017-12-25T12:32:22.050Z,9.80
2017-12-25T12:34:49.630Z,9.70
2017-12-25T12:37:18.140Z,9.80
2017-12-25T12:39:46.440Z,9.80
2017-12-25T12:42:15.081Z,9.30
2017-12-25T12:44:42.711Z,9.30
2017-12-25T12:47:10.261Z,10.10
2017-12-25T12:49:37.790Z,9.90
2017-12-25T12:52:15.939Z,10.40
2017-12-25T12:54:43.467Z,10.40
2017-12-25T12:57:11.781Z,9.30
2017-12-25T12:59:39.312Z,9.20
2017-12-25T13:02:07.617Z,8.60
2017-12-25T13:04:35.148Z,8.60
2017-12-25T13:07:03.427Z,9.70
2017-12-25T13:09:30.974Z,9.70
2017-12-25T13:11:59.274Z,10.60
2017-12-25T13:14:26.802Z,10.60
2017-12-25T13:16:55.110Z,10.40
2017-12-25T13:19:22.637Z,10.40
2017-12-25T13:21:54.230Z,10.70
2017-12-25T13:24:21.743Z,10.70
2017-12-25T13:26:49.273Z,11.10
2017-12-25T13:29:19.230Z,11.20
2017-12-25T13:31:47.529Z,10.10
2017-12-25T13:34:15.063Z,10.10
2017-12-25T13:36:43.343Z,10.80
2017-12-25T13:39:14.702Z,11.00
2017-12-25T13:41:42.235Z,11.00
2017-12-25T13:44:12.608Z,11.00
2017-12-25T13:46:40.139Z,11.00
2017-12-25T13:49:26.304Z,11.00
2017-12-25T13:51:53.862Z,11.00
2017-12-25T13:54:21.392Z,10.30
2017-12-25T13:56:48.908Z,10.40
2017-12-25T13:59:18.948Z,10.50
2017-12-25T14:01:48.640Z,10.50
2017-12-25T14:04:16.181Z,10.70
2017-12-25T14:06:44.471Z,10.90
2017-12-25T14:09:11.991Z,10.90
2017-12-25T14:11:39.532Z,11.00
2017-12-25T14:14:07.051Z,11.10
2017-12-25T14:16:34.614Z,11.10
2017-12-25T14:19:02.132Z,11.20
2017-12-25T14:21:29.670Z,11.20
2017-12-25T14:23:57.236Z,11.00
2017-12-25T14:26:24.770Z,10.80
2017-12-25T14:28:52.316Z,10.60
2017-12-25T14:31:19.831Z,10.20
2017-12-25T14:33:47.656Z,10.00
2017-12-25T14:36:15.203Z,9.60
2017-12-25T14:38:42.731Z,9.40
2017-12-25T14:41:11.036Z,9.10
2017-12-25T14:43:38.556Z,9.00
2017-12-25T14:46:06.851Z,8.70
2017-12-25T14:48:34.401Z,8.70
2017-12-25T14:51:16.078Z,8.40
2017-12-25T14:53:45.467Z,8.40
2017-12-25T14:56:14.835Z,8.20
2017-12-25T14:58:42.433Z,8.00
2017-12-25T15:01:16.645Z,7.80
2017-12-25T15:03:44.202Z,7.70
2017-12-25T15:06:13.198Z,7.50
2017-12-25T15:08:44.107Z,7.30
2017-12-25T15:11:12.572Z,7.20
2017-12-25T15:13:41.053Z,7.10
2017-12-25T15:16:08.866Z,6.90
2017-12-25T15:18:36.402Z,6.60
2017-12-25T15:21:03.940Z,6.30
2017-12-25T15:23:31.478Z,6.00
2017-12-25T15:25:59.044Z,5.80
2017-12-25T15:28:26.564Z,5.70
2017-12-25T15:30:54.856Z,5.60
2017-12-25T15:33:22.395Z,5.60
2017-12-25T15:35:50.695Z,5.50
2017-12-25T15:38:18.216Z,5.50
2017-12-25T15:40:45.770Z,5.30
2017-12-25T15:43:13.292Z,5.20
2017-12-25T15:45:41.183Z,5.10
2017-12-25T15:48:08.740Z,4.90
2017-12-25T15:50:37.022Z,4.50
2017-12-25T15:53:04.551Z,4.50
2017-12-25T15:55:32.105Z,4.40
2017-12-25T15:57:59.654Z,4.50
2017-12-25T16:00:27.182Z,4.50
2017-12-25T16:02:54.817Z,4.60
2017-12-25T16:05:23.150Z,4.30
2017-12-25T16:07:50.677Z,4.30
2017-12-25T16:10:18.994Z,4.00
2017-12-25T16:12:46.648Z,3.90
2017-12-25T16:15:15.353Z,3.90
2017-12-25T16:17:42.873Z,3.90
2017-12-25T16:20:11.171Z,3.80
2017-12-25T16:22:38.850Z,3.80
2017-12-25T16:25:06.394Z,3.80
2017-12-25T16:27:33.944Z,3.70
2017-12-25T16:30:01.481Z,3.70
2017-12-25T16:32:29.787Z,3.60
2017-12-25T16:34:57.323Z,3.60
2017-12-25T16:37:25.955Z,3.50
2017-12-25T16:39:53.486Z,3.50
2017-12-25T16:42:21.019Z,3.40
2017-12-25T16:44:49.316Z,3.10
2017-12-25T16:47:18.592Z,3.00
2017-12-25T16:49:47.347Z,3.00
2017-12-25T16:52:14.881Z,3.00
2017-12-25T16:54:42.400Z,3.00
2017-12-25T16:57:11.501Z,2.90
2017-12-25T16:59:42.520Z,2.80
2017-12-25T17:02:10.068Z,2.80
2017-12-25T17:04:37.584Z,2.80
2017-12-25T17:07:06.547Z,2.70
2017-12-25T17:09:34.116Z,2.70
2017-12-25T17:12:01.651Z,2.70
2017-12-25T17:14:29.971Z,2.60
2017-12-25T17:16:58.375Z,2.60
2017-12-25T17:19:28.328Z,2.60
2017-12-25T17:21:55.890Z,2.60
2017-12-25T17:24:24.172Z,2.50
2017-12-25T17:26:52.482Z,2.40
2017-12-25T17:29:20.010Z,2.40
2017-12-25T17:31:48.386Z,2.20
2017-12-25T17:34:16.684Z,2.10
2017-12-25T17:36:44.263Z,2.00
2017-12-25T17:39:11.798Z,1.90
2017-12-25T17:41:40.349Z,1.90
2017-12-25T17:44:07.898Z,1.80
2017-12-25T17:46:37.159Z,1.70
2017-12-25T17:49:07.176Z,1.70
2017-12-25T17:51:34.691Z,1.80
2017-12-25T17:54:04.409Z,1.80
2017-12-25T17:56:32.707Z,1.80
2017-12-25T17:59:00.237Z,1.80
2017-12-25T18:01:28.562Z,1.90
2017-12-25T18:03:56.332Z,1.80
2017-12-25T18:06:23.852Z,1.80
2017-12-25T18:08:51.393Z,1.80
2017-12-25T18:11:19.702Z,1.70
2017-12-25T18:13:47.253Z,1.70
2017-12-25T18:16:16.220Z,1.70
2017-12-25T18:18:43.802Z,1.70
2017-12-25T18:21:12.193Z,1.60
2017-12-25T18:23:39.709Z,1.60
2017-12-25T18:26:08.842Z,1.60
2017-12-25T18:28:36.375Z,1.60
2017-12-25T18:31:04.694Z,1.50
2017-12-25T18:33:33.906Z,1.50
2017-12-25T18:36:01.450Z,1.50
2017-12-25T18:38:29.783Z,1.40
2017-12-25T18:40:58.072Z,1.30
2017-12-25T18:43:25.607Z,1.30
2017-12-25T18:45:53.906Z,1.30
2017-12-25T18:48:22.038Z,1.30
2017-12-25T18:50:49.587Z,1.30
2017-12-25T18:53:19.034Z,1.20
2017-12-25T18:55:46.594Z,1.10
2017-12-25T18:58:14.147Z,1.20
2017-12-25T19:00:42.531Z,1.10
2017-12-25T19:03:10.071Z,1.00
2017-12-25T19:05:38.617Z,0.90
2017-12-25T19:08:06.160Z,0.90
2017-12-25T19:10:33.697Z,0.90
2017-12-25T19:13:03.191Z,0.90
2017-12-25T19:15:30.760Z,0.80
2017-12-25T19:17:58.283Z,0.70
2017-12-25T19:20:26.875Z,0.70
2017-12-25T19:22:56.020Z,0.70
2017-12-25T19:25:23.561Z,0.70
2017-12-25T19:27:51.102Z,0.70
2017-12-25T19:30:19.438Z,0.70
2017-12-25T19:32:46.981Z,0.70
2017-12-25T19:35:15.812Z,0.70
2017-12-25T19:37:45.575Z,0.70
2017-12-25T19:40:13.209Z,0.70
2017-12-25T19:42:40.750Z,0.50
2017-12-25T19:45:09.071Z,0.50
2017-12-25T19:47:36.609Z,0.40
2017-12-25T19:50:04.131Z,0.40
2017-12-25T19:52:31.688Z,0.40
2017-12-25T19:54:59.996Z,0.40
2017-12-25T19:57:27.539Z,0.40
2017-12-25T19:59:55.828Z,0.30
2017-12-25T20:02:23.389Z,0.30
2017-12-25T20:04:51.094Z,0.30
2017-12-25T20:07:18.630Z,0.30
2017-12-25T20:09:46.167Z,0.30
2017-12-25T20:12:13.732Z,0.30
2017-12-25T20:14:41.310Z,0.30
2017-12-25T20:17:08.842Z,0.30
2017-12-25T20:19:36.363Z,0.30
2017-12-25T20:22:03.918Z,0.20
2017-12-25T20:24:31.457Z,0.20
2017-12-25T20:26:58.999Z,0.10
2017-12-25T20:29:26.538Z,0.10
2017-12-25T20:31:54.079Z,0.20
2017-12-25T20:34:22.393Z,0.10
2017-12-25T20:36:49.933Z,0.00
2017-12-25T20:39:17.483Z,0.00
2017-12-25T20:41:45.788Z,0.00
2017-12-25T20:44:13.311Z,-0.10
2017-12-25T20:46:41.651Z,0.00
2017-12-25T20:49:09.178Z,-0.10
2017-12-25T20:51:37.075Z,-0.10
2017-12-25T20:54:04.610Z,0.00
2017-12-25T20:56:32.387Z,0.00
2017-12-25T20:58:59.942Z,0.00
2017-12-25T21:01:27.481Z,0.10
2017-12-25T21:03:55.042Z,0.10
2017-12-25T21:06:22.833Z,0.10
2017-12-25T21:08:50.382Z,0.10
2017-12-25T21:11:18.265Z,-0.20
2017-12-25T21:13:45.787Z,-0.40
2017-12-25T21:16:13.580Z,-0.40
2017-12-25T21:18:41.128Z,-0.30
2017-12-25T21:21:08.696Z,-0.20
2017-12-25T21:23:36.254Z,-0.10
2017-12-25T21:26:03.785Z,-0.10
2017-12-25T21:28:31.366Z,-0.20
2017-12-25T21:30:58.908Z,-0.10
2017-12-25T21:33:26.450Z,-0.20
2017-12-25T21:35:54.001Z,-0.10
2017-12-25T21:38:22.308Z,-0.10
2017-12-25T21:40:50.014Z,-0.10
2017-12-25T21:43:17.558Z,-0.10
2017-12-25T21:45:45.098Z,-0.10
2017-12-25T21:48:12.681Z,-0.10
2017-12-25T21:50:40.990Z,-0.10
2017-12-25T21:53:09.304Z,-0.20
2017-12-25T21:55:36.838Z,-0.20
2017-12-25T21:58:04.363Z,-0.20
2017-12-25T22:00:31.937Z,-0.20
2017-12-25T22:03:00.246Z,-0.30
2017-12-25T22:05:27.795Z,-0.30
2017-12-25T22:07:55.329Z,-0.30
2017-12-25T22:10:23.633Z,-0.20
2017-12-25T22:12:51.179Z,-0.20
2017-12-25T22:15:19.471Z,-0.30
2017-12-25T22:17:47.034Z,-0.30
2017-12-25T22:20:14.560Z,-0.30
2017-12-25T22:22:42.869Z,-0.30
2017-12-25T22:25:10.420Z,-0.30
2017-12-25T22:27:37.944Z,-0.20
2017-12-25T22:30:05.512Z,-0.10
2017-12-25T22:32:33.814Z,0.00
2017-12-25T22:35:01.342Z,0.00
2017-12-25T22:37:29.658Z,0.00
2017-12-25T22:39:57.547Z,0.00
2017-12-25T22:42:25.095Z,0.10
2017-12-25T22:44:52.633Z,0.00
2017-12-25T22:47:20.155Z,0.00
2017-12-25T22:49:49.223Z,-0.10
2017-12-25T22:52:16.755Z,-0.10
2017-12-25T22:54:44.313Z,-0.20
2017-12-25T22:57:11.850Z,-0.20
2017-12-25T22:59:39.451Z,-0.20
2017-12-25T23:02:07.019Z,-0.10
2017-12-25T23:04:34.565Z,-0.10
2017-12-25T23:07:02.112Z,-0.10
2017-12-25T23:09:29.654Z,-0.10
2017-12-25T23:11:57.190Z,0.00
2017-12-25T23:14:25.492Z,0.00
2017-12-25T23:16:53.036Z,-0.10
2017-12-25T23:19:21.369Z,-0.10
2017-12-25T23:21:49.359Z,-0.10
2017-12-25T23:24:17.805Z,-0.10
2017-12-25T23:26:45.363Z,-0.10
2017-12-25T23:29:13.016Z,-0.20
2017-12-25T23:31:40.620Z,-0.20
2017-12-25T23:34:08.161Z,-0.20
2017-12-25T23:36:35.802Z,-0.20
2017-12-25T23:39:03.390Z,-0.20
2017-12-25T23:41:31.240Z,-0.20
2017-12-25T23:43:58.791Z,-0.20
2017-12-25T23:46:26.343Z,-0.30
2017-12-25T23:48:53.882Z,-0.30
2017-12-25T23:51:21.676Z,-0.30
2017-12-25T23:53:49.213Z,-0.30
2017-12-25T23:56:16.785Z,-0.30
2017-12-25T23:58:44.312Z,-0.30
